Time;durP1;ratioP1;P1;durP2;ratioP2;P2;SDS_P1;SDS_P2;PMS_P1;PMS_P2;Temp;Humidity;BMP_temperature;BMP_pressure;BME280_temperature;BME280_humidity;BME280_pressure;Samples;Min_cycle;Max_cycle;Signal;HPM_P1;HPM_P2
2021/03/26 09:58:02;;;;;;;10.80;7.70;;;;;;;8.30;61.70;102053.81;1801383;77;27256;-46
2021/03/26 10:00:55;;;;;;;10.43;8.28;;;;;;;9.79;56.40;102054.14;1778064;79;21200;-47
2021/03/26 10:03:40;;;;;;;12.78;6.97;;;;;;;10.23;53.88;102046.86;1774178;79;21144;-46
2021/03/26 10:06:19;;;;;;;8.43;6.53;;;;;;;10.34;53.46;102046.44;1684222;83;21171;-46
2021/03/26 10:11:27;;;;;;;10.53;8.03;;;;;;;10.78;53.02;102039.42;1744853;80;21176;-47
2021/03/26 10:14:11;;;;;;;9.38;6.90;;;;;;;10.98;52.30;102042.88;1740472;81;21136;-46
2021/03/26 10:17:14;;;;;;;9.38;7.22;;;;;;;11.18;51.02;102046.27;1735697;82;21701;-46
2021/03/26 10:19:48;;;;;;;11.53;8.08;;;;;;;11.35;50.37;102041.83;1744539;81;21339;-47
2021/03/26 10:22:39;;;;;;;10.03;7.67;;;;;;;11.51;49.51;102035.25;1743728;80;21377;-46
2021/03/26 10:25:38;;;;;;;8.15;6.97;;;;;;;11.60;48.92;102036.52;1719095;81;21313;-47
2021/03/26 10:28:35;;;;;;;10.40;7.45;;;;;;;11.71;48.96;102039.94;1742996;80;21219;-46
2021/03/26 10:31:15;;;;;;;9.45;6.58;;;;;;;11.83;49.24;102034.22;1740865;80;21223;-47
2021/03/26 10:33:55;;;;;;;7.47;6.20;;;;;;;11.97;48.95;102023.70;1734483;80;21215;-47
2021/03/26 10:36:29;;;;;;;9.70;6.70;;;;;;;12.11;48.63;102023.16;1739167;81;21184;-47
2021/03/26 10:39:35;;;;;;;8.73;6.33;;;;;;;12.24;48.42;102022.19;1766758;79;23049;-47
2021/03/26 10:42:23;;;;;;;9.18;6.83;;;;;;;12.26;47.57;102019.13;1735809;82;21129;-46
2021/03/26 10:45:17;;;;;;;7.72;6.40;;;;;;;12.39;47.08;102020.73;1744347;82;21322;-46
2021/03/26 10:48:03;;;;;;;8.80;6.28;;;;;;;12.47;47.69;102016.77;1756910;80;21191;-45
2021/03/26 10:51:04;;;;;;;8.90;6.62;;;;;;;12.58;46.79;102022.73;1749120;81;21172;-45
2021/03/26 10:53:41;;;;;;;9.98;6.53;;;;;;;12.66;45.44;102019.16;1726099;83;21333;-46
2021/03/26 10:56:31;;;;;;;7.03;5.65;;;;;;;12.76;45.35;102007.73;1737230;81;21145;-45
2021/03/26 10:59:22;;;;;;;12.95;7.05;;;;;;;12.94;45.21;102007.52;1808782;79;22972;-47
2021/03/26 11:01:50;;;;;;;8.75;6.20;;;;;;;12.99;44.32;102008.35;1779935;80;21168;-46
2021/03/26 11:04:33;;;;;;;9.30;6.50;;;;;;;13.06;44.24;102006.10;1769157;80;21156;-46
2021/03/26 11:07:08;;;;;;;7.25;5.78;;;;;;;13.08;44.36;102002.63;1777025;80;21619;-46
2021/03/26 11:09:46;;;;;;;7.65;6.05;;;;;;;13.13;43.75;102002.14;1740271;81;21225;-47
2021/03/26 11:12:32;;;;;;;8.75;6.53;;;;;;;13.17;43.93;102001.22;1742456;82;21146;-47
2021/03/26 11:15:14;;;;;;;8.00;5.78;;;;;;;13.27;43.11;101995.82;1771755;79;23094;-46
2021/03/26 11:17:57;;;;;;;7.87;5.72;;;;;;;13.23;43.98;101996.74;1738054;82;21290;-47
2021/03/26 11:20:41;;;;;;;7.62;5.90;;;;;;;13.29;43.35;101992.73;1737961;82;21152;-47
2021/03/26 11:23:25;;;;;;;8.13;6.00;;;;;;;13.33;43.45;101993.59;1737460;82;21167;-46
2021/03/26 11:26:08;;;;;;;13.38;6.03;;;;;;;13.39;43.39;101994.81;1743474;82;21172;-47
2021/03/26 11:28:54;;;;;;;7.80;5.58;;;;;;;13.44;43.29;101996.47;1747106;82;21165;-47
2021/03/26 11:31:55;;;;;;;9.50;5.95;;;;;;;13.49;42.68;101999.02;1739875;82;21302;-47
2021/03/26 11:34:38;;;;;;;5.45;4.95;;;;;;;13.52;42.24;101995.91;1689930;82;21219;-46
2021/03/26 11:37:32;;;;;;;6.37;4.87;;;;;;;13.62;42.96;101990.13;1771442;79;23560;-47
2021/03/26 11:40:26;;;;;;;8.28;5.62;;;;;;;13.60;42.37;101990.13;1732067;82;21184;-46
2021/03/26 11:43:22;;;;;;;8.13;5.75;;;;;;;13.66;42.37;101981.35;1735132;82;21520;-47
2021/03/26 11:46:02;;;;;;;7.22;4.97;;;;;;;13.73;42.23;101982.97;1738401;82;21568;-47
2021/03/26 11:48:55;;;;;;;6.70;5.10;;;;;;;13.75;42.52;101979.88;1693688;83;21321;-47
2021/03/26 11:51:46;;;;;;;6.15;4.83;;;;;;;13.78;43.38;101978.55;1662952;85;21176;-46
2021/03/26 11:54:45;;;;;;;5.83;5.20;;;;;;;13.81;41.87;101979.78;1663177;85;21587;-47
2021/03/26 11:57:44;;;;;;;5.97;4.97;;;;;;;13.86;40.90;101974.05;1652102;85;21223;-47
2021/03/26 12:00:21;;;;;;;11.63;5.65;;;;;;;13.95;41.49;101966.50;1813986;79;23099;-47
2021/03/26 12:03:16;;;;;;;5.65;4.58;;;;;;;13.95;41.18;101973.88;1775676;80;21172;-47
2021/03/26 12:06:25;;;;;;;4.97;4.10;;;;;;;14.01;41.41;101979.48;1775900;80;21184;-47
2021/03/26 12:09:22;;;;;;;7.65;5.05;;;;;;;13.99;40.88;101975.59;1784136;80;21188;-47
2021/03/26 12:12:10;;;;;;;6.87;4.67;;;;;;;13.97;41.44;101979.98;1775313;80;21563;-46
2021/03/26 12:15:11;;;;;;;5.50;4.70;;;;;;;13.98;42.87;101973.84;1768240;80;21567;-46
2021/03/26 12:17:44;;;;;;;5.75;4.30;;;;;;;13.99;43.78;101972.10;1778270;80;21152;-46
2021/03/26 12:20:36;;;;;;;6.62;3.83;;;;;;;13.92;43.79;101978.31;1783846;80;21275;-47
2021/03/26 12:23:33;;;;;;;6.17;4.62;;;;;;;13.86;44.10;101977.98;1701346;84;21188;-47
2021/03/26 12:26:26;;;;;;;5.35;4.25;;;;;;;13.84;43.24;101971.47;1635441;87;21643;-47
2021/03/26 12:29:20;;;;;;;4.00;3.58;;;;;;;13.77;42.58;101976.80;1701740;83;21162;-47
2021/03/26 12:31:59;;;;;;;6.78;3.67;;;;;;;13.83;42.90;101972.78;1767498;79;22186;-47
2021/03/26 12:34:54;;;;;;;5.12;4.17;;;;;;;13.85;43.38;101978.84;1727968;82;21196;-47
2021/03/26 12:37:34;;;;;;;6.15;4.70;;;;;;;13.92;43.38;101975.26;1723170;83;21245;-47
2021/03/26 12:40:22;;;;;;;6.20;4.78;;;;;;;14.01;43.27;101979.05;1725487;83;21148;-47
2021/03/26 12:42:56;;;;;;;6.90;4.67;;;;;;;14.07;42.00;101984.18;1724062;83;21172;-46
2021/03/26 12:46:00;;;;;;;6.87;4.62;;;;;;;14.11;42.10;101974.08;1810034;79;22975;-47
2021/03/26 12:48:49;;;;;;;6.62;4.75;;;;;;;14.02;41.78;101978.14;1780323;80;21204;-46
2021/03/26 12:51:39;;;;;;;8.85;5.50;;;;;;;13.96;42.29;101974.32;1779918;80;21293;-46
2021/03/26 12:54:43;;;;;;;7.55;5.00;;;;;;;13.98;42.58;101977.77;1775193;80;21151;-47
2021/03/26 12:57:28;;;;;;;5.97;4.80;;;;;;;13.96;41.48;101971.70;1771369;80;21120;-47
2021/03/26 13:00:06;;;;;;;5.62;5.08;;;;;;;13.93;41.18;101970.43;1781318;80;21128;-47
2021/03/26 13:02:41;;;;;;;4.35;3.55;;;;;;;13.95;40.23;101967.34;1722735;83;21718;-47
2021/03/26 13:05:26;;;;;;;5.05;3.85;;;;;;;14.02;40.49;101971.59;1724208;83;21202;-47
2021/03/26 13:08:21;;;;;;;7.42;4.15;;;;;;;14.10;41.28;101968.41;1799673;78;23045;-47
2021/03/26 13:11:06;;;;;;;5.10;3.90;;;;;;;14.09;41.39;101969.31;1743130;82;21659;-47
2021/03/26 13:13:44;;;;;;;6.15;4.60;;;;;;;14.08;40.33;101966.27;1741247;81;21944;-47
2021/03/26 13:16:37;;;;;;;4.97;4.28;;;;;;;14.03;40.47;101969.42;1725320;83;21193;-47
2021/03/26 13:19:15;;;;;;;5.17;4.25;;;;;;;14.11;40.69;101964.91;1706523;83;21196;-48
2021/03/26 13:22:24;;;;;;;5.15;4.20;;;;;;;14.19;41.22;101970.88;1672564;84;21245;-47
2021/03/26 13:25:15;;;;;;;5.67;3.90;;;;;;;14.25;40.50;101969.90;1732529;82;21323;-47
2021/03/26 13:27:51;;;;;;;5.30;3.95;;;;;;;14.24;40.92;101970.34;1735576;81;21187;-48
2021/03/26 13:30:45;;;;;;;4.70;3.60;;;;;;;14.34;40.48;101962.77;1804736;79;23414;-47
2021/03/26 13:35:19;;;;;;;5.53;3.67;;;;;;;14.35;40.42;101964.51;1788129;79;27185;-47
2021/03/26 13:37:48;;;;;;;5.17;3.70;;;;;;;14.42;39.35;101966.14;1732805;82;21303;-47
2021/03/26 13:40:20;;;;;;;4.87;3.87;;;;;;;14.45;39.35;101963.45;1723583;82;21184;-46
2021/03/26 13:43:03;;;;;;;5.10;3.80;;;;;;;14.48;39.38;101966.02;1726779;81;21208;-47
2021/03/26 13:45:31;;;;;;;4.87;3.92;;;;;;;14.54;39.21;101964.59;1724899;81;21251;-47
2021/03/26 13:48:15;;;;;;;6.17;4.60;;;;;;;14.57;39.31;101968.45;1743522;82;21192;-47
2021/03/26 13:51:03;;;;;;;6.20;4.92;;;;;;;14.59;39.37;101962.73;1721905;81;21157;-47
2021/03/26 13:53:49;;;;;;;5.70;4.53;;;;;;;14.59;39.39;101967.97;1719426;82;21169;-47
2021/03/26 13:56:27;;;;;;;12.05;7.12;;;;;;;14.59;39.45;101963.17;1738807;80;21184;-47
2021/03/26 13:59:00;;;;;;;13.25;9.40;;;;;;;14.58;39.67;101964.95;1737943;81;21187;-47
2021/03/26 14:01:31;;;;;;;9.80;7.42;;;;;;;14.58;39.90;101964.95;1746341;82;21640;-47
2021/03/26 14:04:17;;;;;;;5.97;4.40;;;;;;;14.52;39.70;101959.84;1771467;79;23533;-47
2021/03/26 14:07:10;;;;;;;3.45;3.15;;;;;;;14.46;39.75;101968.25;1655653;84;21170;-47
2021/03/26 14:09:57;;;;;;;5.28;3.55;;;;;;;14.51;39.66;101967.70;1810112;79;22684;-47
2021/03/26 14:12:33;;;;;;;4.72;3.55;;;;;;;14.51;39.12;101968.56;1776801;80;21159;-48
2021/03/26 14:15:23;;;;;;;3.75;3.12;;;;;;;14.57;39.55;101955.36;1776925;80;21599;-47
2021/03/26 14:18:07;;;;;;;2.92;2.52;;;;;;;14.61;39.09;101959.64;1700576;82;21324;-47
2021/03/26 14:20:48;;;;;;;3.67;2.90;;;;;;;14.69;39.14;101957.73;1680540;84;21202;-47
2021/03/26 14:23:31;;;;;;;4.37;3.93;;;;;;;14.73;39.28;101960.30;1700833;82;21150;-47
2021/03/26 14:26:23;;;;;;;6.50;4.30;;;;;;;14.78;38.90;101968.92;1700959;82;21606;-47
2021/03/26 14:29:03;;;;;;;6.97;4.22;;;;;;;14.80;39.52;101972.37;1700804;82;21142;-46
2021/03/26 14:31:53;;;;;;;7.12;4.28;;;;;;;14.80;40.67;101969.75;1700955;82;21387;-47
2021/03/26 14:34:32;;;;;;;11.12;5.50;;;;;;;14.83;41.00;101962.72;1780777;79;23493;-46
2021/03/26 14:37:03;;;;;;;5.42;4.33;;;;;;;14.80;40.61;101968.01;1737221;82;21156;-46
2021/03/26 14:39:38;;;;;;;6.25;4.92;;;;;;;14.77;39.60;101972.45;1740958;82;21128;-46
2021/03/26 14:42:09;;;;;;;5.10;4.45;;;;;;;14.76;39.47;101968.09;1731833;82;21168;-48
2021/03/26 14:44:48;;;;;;;7.10;5.28;;;;;;;14.74;40.10;101967.26;1701729;83;21603;-46
2021/03/26 14:47:19;;;;;;;6.12;4.55;;;;;;;14.72;40.14;101967.73;1697307;84;21157;-46
2021/03/26 14:50:18;;;;;;;5.30;4.22;;;;;;;14.70;40.12;101974.33;1703457;83;21176;-46
2021/03/26 14:53:04;;;;;;;6.30;5.12;;;;;;;14.66;39.42;101977.45;1704374;83;21189;-46
2021/03/26 14:55:51;;;;;;;6.22;4.37;;;;;;;14.65;39.75;101967.86;1771355;79;23060;-47
2021/03/26 14:58:45;;;;;;;4.90;3.95;;;;;;;14.54;39.51;101978.13;1734076;82;21129;-47
2021/03/26 15:01:32;;;;;;;6.40;4.67;;;;;;;14.44;39.55;101977.45;1738886;82;21309;-47
2021/03/26 15:04:26;;;;;;;8.48;3.95;;;;;;;14.38;39.70;101982.80;1734144;82;21101;-47
2021/03/26 15:07:13;;;;;;;5.10;4.35;;;;;;;14.33;39.37;101987.24;1715214;82;21160;-47
2021/03/26 15:09:59;;;;;;;8.18;4.50;;;;;;;14.30;39.26;101987.28;1679958;84;21252;-47
2021/03/26 15:12:41;;;;;;;5.58;4.78;;;;;;;14.30;39.67;101989.90;1667464;85;21229;-47
2021/03/26 15:15:27;;;;;;;6.95;4.30;;;;;;;14.25;39.65;101990.41;1676593;84;21293;-47
2021/03/26 15:18:43;;;;;;;5.65;5.05;;;;;;;14.23;39.17;101990.88;1672312;85;21327;-47
2021/03/26 15:21:37;;;;;;;5.42;4.17;;;;;;;14.21;40.28;101992.66;1766178;79;23089;-48
2021/03/26 15:24:42;;;;;;;4.67;4.17;;;;;;;14.11;40.61;101992.40;1738332;82;21219;-47
2021/03/26 15:27:22;;;;;;;7.92;5.50;;;;;;;14.03;40.22;102002.13;1741066;82;21117;-46
2021/03/26 15:30:24;;;;;;;6.25;4.35;;;;;;;13.95;40.26;102002.67;1741119;82;22347;-47
2021/03/26 15:33:13;;;;;;;7.92;5.67;;;;;;;13.87;41.29;102012.39;1740494;82;21153;-47
2021/03/26 15:36:07;;;;;;;5.62;5.03;;;;;;;13.77;43.11;102010.80;1688743;85;21616;-47
2021/03/26 15:38:50;;;;;;;5.10;4.60;;;;;;;13.68;44.24;102020.12;1688987;85;21208;-47
2021/03/26 15:41:30;;;;;;;7.83;5.55;;;;;;;13.57;44.70;102010.23;1677079;85;21576;-47
2021/03/26 15:44:19;;;;;;;5.87;5.10;;;;;;;13.47;45.46;102020.41;1686817;85;21137;-47
2021/03/26 15:47:11;;;;;;;7.15;5.53;;;;;;;13.49;45.92;102017.33;1811549;79;22992;-47
2021/03/26 15:50:18;;;;;;;7.33;5.83;;;;;;;13.40;45.99;102021.36;1768363;80;21151;-47
2021/03/26 15:53:11;;;;;;;5.72;4.90;;;;;;;13.31;45.40;102029.34;1778914;80;21148;-47
2021/03/26 15:56:11;;;;;;;6.70;5.25;;;;;;;13.12;44.85;102031.75;1776930;80;21151;-47
2021/03/26 15:59:20;;;;;;;6.53;5.47;;;;;;;13.01;45.56;102035.33;1779238;80;21151;-47
2021/03/26 16:02:13;;;;;;;7.05;5.67;;;;;;;12.94;45.15;102036.26;1688100;84;21198;-46
2021/03/26 16:04:55;;;;;;;9.20;6.00;;;;;;;12.90;44.10;102046.79;1678179;84;21338;-47
2021/03/26 16:07:38;;;;;;;;;;;;;;;12.81;43.74;102050.36;1683690;84;21240;-47
2021/03/26 16:10:33;;;;;;;5.87;4.92;;;;;;;12.75;43.20;102050.42;1666274;86;20173;-46
2021/03/26 16:13:48;;;;;;;7.17;6.10;;;;;;;12.65;42.94;102046.14;1654303;86;21253;-47
2021/03/26 16:16:45;;;;;;;7.55;6.28;;;;;;;12.61;42.81;102053.58;1659264;86;21226;-47
2021/03/26 16:19:59;;;;;;;7.62;6.20;;;;;;;12.57;42.70;102049.27;1774422;79;22216;-47
2021/03/26 16:22:40;;;;;;;8.48;5.85;;;;;;;12.47;42.88;102051.55;1737903;82;21157;-47
2021/03/26 16:25:19;;;;;;;7.67;6.20;;;;;;;12.41;43.05;102050.73;1737900;82;21172;-47
2021/03/26 16:28:08;;;;;;;8.35;6.42;;;;;;;12.36;42.94;102053.83;1735801;82;21578;-47
2021/03/26 16:31:06;;;;;;;9.48;8.20;;;;;;;12.31;42.57;102061.70;1737827;82;21286;-47
2021/03/26 16:34:00;;;;;;;17.50;10.58;;;;;;;12.25;42.45;102064.36;1740505;82;21222;-47
2021/03/26 16:36:49;;;;;;;30.55;19.40;;;;;;;12.20;42.40;102061.77;1737870;82;21165;-46
2021/03/26 16:39:40;;;;;;;52.60;30.97;;;;;;;12.15;42.40;102069.22;1738288;80;21184;-46
2021/03/26 16:42:17;;;;;;;31.35;22.45;;;;;;;12.09;42.18;102077.09;1735373;82;21148;-46
2021/03/26 16:45:28;;;;;;;27.25;18.82;;;;;;;12.06;41.80;102083.63;1739487;82;21159;-46
2021/03/26 16:48:02;;;;;;;21.10;13.43;;;;;;;12.06;41.62;102084.93;1731416;82;21595;-46
2021/03/26 16:50:49;;;;;;;31.27;17.05;;;;;;;12.04;40.82;102091.90;1731938;82;21140;-46
2021/03/26 16:53:38;;;;;;;26.40;16.23;;;;;;;11.97;40.66;102099.35;1642220;87;21683;-46
2021/03/26 16:56:44;;;;;;;34.18;21.52;;;;;;;11.94;40.60;102100.66;1642169;87;21196;-46
2021/03/26 16:59:52;;;;;;;38.65;21.75;;;;;;;11.91;40.65;102104.61;1643588;87;21161;-47
2021/03/26 17:02:48;;;;;;;30.92;20.55;;;;;;;11.89;40.88;102106.36;1627179;87;21195;-46
2021/03/26 17:05:40;;;;;;;17.92;13.83;;;;;;;11.85;41.39;102111.16;1642885;87;21628;-46
2021/03/26 17:08:34;;;;;;;20.43;12.55;;;;;;;11.79;42.03;102116.38;1637859;87;21475;-46
2021/03/26 17:11:29;;;;;;;13.58;11.48;;;;;;;11.80;42.51;102115.09;1769661;79;23489;-47
2021/03/26 17:14:22;;;;;;;12.80;9.33;;;;;;;11.73;42.98;102117.72;1660282;86;21178;-46
2021/03/26 17:17:14;;;;;;;11.93;8.85;;;;;;;11.71;44.31;102119.04;1771380;79;23138;-47
2021/03/26 17:20:05;;;;;;;8.85;6.83;;;;;;;11.61;44.92;102122.96;1735920;82;21109;-47
2021/03/26 17:23:24;;;;;;;9.80;6.70;;;;;;;11.56;45.66;102128.65;1700035;84;21228;-47
2021/03/26 17:26:18;;;;;;;11.83;10.25;;;;;;;11.51;46.18;102130.39;1701202;84;21192;-46
2021/03/26 17:29:23;;;;;;;15.28;10.93;;;;;;;11.43;46.66;102140.43;1704689;84;21179;-46
2021/03/26 17:32:29;;;;;;;10.63;8.38;;;;;;;11.37;46.98;102146.94;1673483;84;21186;-47
2021/03/26 17:35:37;;;;;;;10.38;7.75;;;;;;;11.31;47.10;102143.50;1672927;86;21199;-46
2021/03/26 17:38:46;;;;;;;10.15;7.55;;;;;;;11.24;47.43;102153.06;1667520;86;21235;-47
2021/03/26 17:41:46;;;;;;;9.83;7.53;;;;;;;11.19;47.73;102157.41;1695420;84;21632;-46
2021/03/26 17:44:22;;;;;;;9.10;6.95;;;;;;;11.14;47.86;102155.69;1692090;84;21200;-47
2021/03/26 17:46:56;;;;;;;8.35;7.12;;;;;;;11.08;47.90;102159.19;1694909;84;21205;-46
2021/03/26 17:49:55;;;;;;;10.50;7.87;;;;;;;11.09;47.97;102164.81;1802044;79;23550;-47
2021/03/26 17:52:46;;;;;;;8.53;7.50;;;;;;;11.02;47.98;102176.13;1779027;80;21152;-48
2021/03/26 17:56:09;;;;;;;11.03;7.37;;;;;;;11.01;48.08;102172.20;1766185;80;21141;-47
2021/03/26 17:58:46;;;;;;;9.80;7.78;;;;;;;11.02;48.07;102168.31;1772897;80;21151;-47
2021/03/26 18:01:34;;;;;;;14.53;10.35;;;;;;;11.08;47.61;102173.52;1774911;80;21141;-46
2021/03/26 18:04:11;;;;;;;14.40;10.35;;;;;;;11.12;46.94;102181.75;1769620;80;21302;-47
2021/03/26 18:06:55;;;;;;;19.60;14.65;;;;;;;11.14;46.31;102177.41;1762959;80;21302;-47
2021/03/26 18:09:48;;;;;;;23.07;16.48;;;;;;;11.18;45.66;102182.17;1771267;80;21153;-47
2021/03/26 18:12:26;;;;;;;25.05;16.62;;;;;;;11.20;45.40;102186.52;1769527;80;21167;-47
2021/03/26 18:15:16;;;;;;;47.23;29.87;;;;;;;11.20;45.05;102190.42;1768866;80;21282;-47
2021/03/26 18:18:15;;;;;;;39.10;23.55;;;;;;;11.22;44.80;102193.89;1771488;79;23670;-46
2021/03/26 18:21:24;;;;;;;26.77;16.27;;;;;;;11.13;44.78;102192.59;1732550;82;21604;-46
2021/03/26 18:24:33;;;;;;;30.88;18.30;;;;;;;11.10;44.96;102192.61;1737935;82;21169;-47
2021/03/26 18:27:23;;;;;;;25.27;15.43;;;;;;;11.03;44.83;102197.38;1743798;82;21322;-47
2021/03/26 18:30:41;;;;;;;17.80;13.08;;;;;;;10.96;44.24;102193.06;1694539;84;21368;-46
2021/03/26 18:33:37;;;;;;;46.75;28.83;;;;;;;10.93;44.07;102198.26;1690632;84;21211;-46
2021/03/26 18:36:17;;;;;;;51.53;35.58;;;;;;;10.87;43.95;102193.05;1693538;83;21156;-46
2021/03/26 18:39:05;;;;;;;39.55;27.58;;;;;;;10.85;44.12;102203.03;1687910;84;21423;-46
2021/03/26 18:41:53;;;;;;;43.87;30.05;;;;;;;10.82;44.08;102204.34;1699430;84;21171;-48
2021/03/26 18:44:49;;;;;;;42.55;29.27;;;;;;;10.77;44.18;102208.24;1691483;84;21184;-47
2021/03/26 18:48:10;;;;;;;28.40;19.62;;;;;;;10.77;44.30;102213.88;1771466;79;23547;-46
2021/03/26 18:51:07;;;;;;;20.05;16.32;;;;;;;10.69;44.57;102217.78;1734796;82;21290;-46
2021/03/26 18:53:46;;;;;;;19.65;16.27;;;;;;;10.65;44.79;102216.05;1737769;82;21290;-47
2021/03/26 18:56:51;;;;;;;24.63;18.90;;;;;;;10.60;44.78;102211.25;1738136;82;21189;-46
2021/03/26 18:59:44;;;;;;;25.25;19.57;;;;;;;10.57;44.74;102228.19;1738035;82;21152;-46
2021/03/26 19:03:07;;;;;;;20.95;16.62;;;;;;;10.51;45.05;102228.14;1739418;82;21168;-46
2021/03/26 19:05:46;;;;;;;26.68;18.92;;;;;;;10.46;45.41;102224.69;1727254;82;21286;-47
2021/03/26 19:08:19;;;;;;;22.15;16.65;;;;;;;10.41;45.42;102233.77;1739806;82;21160;-47
2021/03/26 19:11:11;;;;;;;22.62;16.32;;;;;;;10.39;45.48;102233.33;1740188;82;21140;-47
2021/03/26 19:13:56;;;;;;;20.97;16.07;;;;;;;10.34;45.64;102233.34;1744358;82;21132;-47
2021/03/26 19:16:38;;;;;;;20.17;14.87;;;;;;;10.30;45.76;102235.92;1744337;82;21588;-47
2021/03/26 19:19:34;;;;;;;15.70;12.60;;;;;;;10.25;46.10;102240.23;1744352;82;21200;-46
2021/03/26 19:23:00;;;;;;;13.25;10.48;;;;;;;10.21;46.42;102239.78;1734127;82;21144;-46
2021/03/26 19:25:54;;;;;;;14.18;11.12;;;;;;;10.18;46.80;102242.39;1646895;86;21152;-46
2021/03/26 19:28:56;;;;;;;14.73;10.82;;;;;;;10.14;46.97;102245.84;1653916;86;21180;-46
2021/03/26 19:31:46;;;;;;;;;;;;;;;10.10;47.04;102241.47;1649131;86;21182;-47
2021/03/26 19:35:25;;;;;;;14.05;10.55;;;;;;;10.07;47.26;102242.74;1801044;78;22999;-46
2021/03/26 19:38:27;;;;;;;23.32;12.65;;;;;;;10.00;47.37;102246.16;1777302;80;21168;-46
2021/03/26 19:41:01;;;;;;;;;;;;;;;9.97;47.31;102244.87;1658898;85;21202;-46
2021/03/26 19:43:54;;;;;;;13.45;9.95;;;;;;;9.93;47.39;102245.72;1656675;85;20432;-46
2021/03/26 19:47:10;;;;;;;14.25;9.70;;;;;;;9.94;47.45;102248.73;1769971;79;23089;-46
2021/03/26 19:50:02;;;;;;;11.40;9.10;;;;;;;9.89;47.44;102243.97;1743829;82;21168;-47
2021/03/26 19:52:46;;;;;;;;;;;;;;;9.88;47.34;102252.61;1740569;82;21129;-46
2021/03/26 19:55:39;;;;;;;9.85;7.65;;;;;;;9.83;47.45;102252.16;1738984;82;20643;-47
2021/03/26 19:58:27;;;;;;;11.03;7.78;;;;;;;9.78;47.39;102248.69;1651803;85;21203;-47
2021/03/26 20:01:13;;;;;;;13.58;10.25;;;;;;;9.79;47.43;102243.91;1785501;78;28287;-47
2021/03/26 20:04:10;;;;;;;10.60;9.03;;;;;;;9.76;47.25;102249.11;1790572;80;21156;-46
2021/03/26 20:07:01;;;;;;;9.63;8.30;;;;;;;9.80;47.07;102249.56;1758411;80;21171;-46
2021/03/26 20:10:12;;;;;;;8.55;7.50;;;;;;;9.77;47.09;102250.83;1744917;81;21151;-47
2021/03/26 20:13:01;;;;;;;10.05;7.40;;;;;;;9.75;47.08;102251.68;1757249;81;21659;-46
2021/03/26 20:15:41;;;;;;;8.65;7.15;;;;;;;9.72;47.18;102251.68;1679932;85;21321;-46
2021/03/26 20:18:43;;;;;;;9.20;7.00;;;;;;;9.67;47.18;102246.45;1711811;82;21613;-47
2021/03/26 20:21:38;;;;;;;10.23;6.95;;;;;;;9.65;47.23;102254.67;1713959;82;21178;-47
2021/03/26 20:24:44;;;;;;;10.28;6.62;;;;;;;9.62;47.03;102248.14;1710095;83;21594;-46
2021/03/26 20:27:54;;;;;;;7.35;6.60;;;;;;;9.60;47.07;102253.76;1711474;82;21783;-47
2021/03/26 20:30:45;;;;;;;8.35;6.65;;;;;;;9.62;47.08;102252.03;1773607;79;22827;-46
2021/03/26 20:34:03;;;;;;;8.05;6.83;;;;;;;9.55;47.24;102253.30;1717645;82;21176;-46
2021/03/26 20:36:46;;;;;;;8.23;5.83;;;;;;;9.53;47.36;102255.90;1711873;83;21188;-46
2021/03/26 20:39:23;;;;;;;7.83;6.55;;;;;;;9.54;47.32;102251.58;1769850;79;23094;-46
2021/03/26 20:41:56;;;;;;;8.75;7.00;;;;;;;9.48;47.36;102253.69;1745368;82;21116;-47
2021/03/26 20:44:44;;;;;;;10.93;7.40;;;;;;;9.47;47.19;102255.86;1731718;82;21164;-47
2021/03/26 20:47:47;;;;;;;7.62;6.22;;;;;;;9.48;47.40;102256.28;1734793;82;21181;-47
2021/03/26 20:50:32;;;;;;;6.58;5.87;;;;;;;9.50;47.34;102255.86;1742444;82;21299;-46
2021/03/26 20:53:20;;;;;;;6.15;5.50;;;;;;;9.55;47.12;102251.58;1654096;84;21176;-47
2021/03/26 20:56:03;;;;;;;6.87;6.17;;;;;;;9.60;47.05;102251.16;1663874;86;21171;-47
2021/03/26 20:58:48;;;;;;;10.78;6.53;;;;;;;9.64;47.10;102252.91;1653619;86;21172;-46
2021/03/26 21:01:38;;;;;;;7.97;6.17;;;;;;;9.72;47.16;102253.86;1810281;79;23433;-46
2021/03/26 21:04:10;;;;;;;8.70;6.67;;;;;;;9.72;46.54;102252.56;1779097;80;21116;-46
2021/03/26 21:07:03;;;;;;;;;;;;;;;9.74;46.48;102244.34;1702093;83;21196;-47
2021/03/26 21:09:35;;;;;;;8.10;6.12;;;;;;;9.75;46.56;102239.56;1705488;83;20257;-46
2021/03/26 21:12:24;;;;;;;10.30;6.58;;;;;;;9.77;46.33;102237.84;1771501;79;23114;-46
2021/03/26 21:15:15;;;;;;;8.23;6.35;;;;;;;9.70;46.45;102239.98;1657537;86;21147;-46
2021/03/26 21:18:06;;;;;;;9.25;6.37;;;;;;;9.72;46.51;102239.56;1771443;79;23077;-47
2021/03/26 21:20:43;;;;;;;6.80;5.60;;;;;;;9.55;46.83;102243.78;1737716;82;21715;-46
2021/03/26 21:23:13;;;;;;;6.85;5.75;;;;;;;9.45;47.13;102243.30;1737931;82;21294;-47
2021/03/26 21:26:06;;;;;;;7.65;6.40;;;;;;;9.42;47.29;102244.55;1738234;82;21196;-46
2021/03/26 21:28:46;;;;;;;7.75;6.50;;;;;;;9.52;46.93;102242.91;1735733;82;21152;-46
2021/03/26 21:31:45;;;;;;;7.67;6.08;;;;;;;9.38;47.41;102245.39;1733220;82;21125;-46
2021/03/26 21:34:28;;;;;;;8.73;6.33;;;;;;;9.32;47.38;102241.45;1715692;82;21156;-47
2021/03/26 21:37:42;;;;;;;8.08;6.15;;;;;;;9.39;46.70;102245.85;1733704;82;21290;-46
2021/03/26 21:40:41;;;;;;;8.23;6.60;;;;;;;9.38;46.54;102245.39;1741426;81;21576;-46
2021/03/26 21:43:25;;;;;;;8.78;7.03;;;;;;;9.33;46.53;102243.22;1734335;82;21144;-46
2021/03/26 21:46:05;;;;;;;8.00;6.85;;;;;;;9.27;46.87;102249.67;1736403;82;21156;-46
2021/03/26 21:49:05;;;;;;;7.15;6.17;;;;;;;9.24;47.35;102261.31;1732870;82;21282;-46
2021/03/26 21:51:45;;;;;;;7.70;6.80;;;;;;;9.20;48.53;102259.55;1699385;83;21185;-45
2021/03/26 21:54:45;;;;;;;10.00;7.20;;;;;;;9.16;49.25;102266.01;1703265;83;21175;-45
2021/03/26 21:57:21;;;;;;;8.38;6.55;;;;;;;9.13;49.46;102261.65;1692966;83;21370;-46
2021/03/26 21:59:57;;;;;;;10.30;7.05;;;;;;;9.13;48.86;102262.95;1697231;83;21205;-46
2021/03/26 22:03:05;;;;;;;8.98;6.85;;;;;;;9.13;48.51;102262.95;1661353;86;21314;-46
2021/03/26 22:05:39;;;;;;;10.60;7.00;;;;;;;9.12;48.18;102256.45;1696038;83;21216;-47
2021/03/26 22:08:47;;;;;;;9.98;8.03;;;;;;;9.14;48.04;102260.81;1771875;79;23080;-46
2021/03/26 22:11:18;;;;;;;11.20;7.58;;;;;;;9.06;47.87;102259.88;1741279;82;21596;-46
2021/03/26 22:14:12;;;;;;;10.70;7.65;;;;;;;9.01;47.94;102266.74;1690656;84;21223;-46
2021/03/26 22:16:53;;;;;;;8.85;7.62;;;;;;;8.97;47.94;102267.58;1694155;84;21176;-45
2021/03/26 22:19:44;;;;;;;10.03;7.33;;;;;;;8.87;47.94;102265.34;1693927;84;21236;-46
2021/03/26 22:22:30;;;;;;;7.72;6.60;;;;;;;8.86;47.88;102274.42;1696014;84;21238;-46
2021/03/26 22:25:15;;;;;;;7.37;6.33;;;;;;;8.79;48.09;102276.50;1705833;84;21257;-46
2021/03/26 22:28:16;;;;;;;8.73;6.42;;;;;;;8.83;47.74;102276.97;1706445;84;21172;-46
2021/03/26 22:31:06;;;;;;;8.48;6.37;;;;;;;8.88;46.97;102281.34;1705656;84;21353;-46
2021/03/26 22:33:55;;;;;;;8.78;6.65;;;;;;;8.94;46.47;102281.84;1771473;79;23523;-46
2021/03/26 22:36:35;;;;;;;9.73;6.50;;;;;;;8.89;46.23;102287.41;1739705;82;21164;-46
2021/03/26 22:39:25;;;;;;;10.15;7.00;;;;;;;8.88;46.27;102287.83;1733939;82;21568;-46
2021/03/26 22:42:11;;;;;;;12.40;7.17;;;;;;;8.90;46.55;102291.76;1737307;82;21168;-46
2021/03/26 22:44:56;;;;;;;10.30;7.65;;;;;;;8.88;46.48;102290.87;1738365;82;21144;-46
2021/03/26 22:47:45;;;;;;;9.45;7.53;;;;;;;8.85;46.67;102286.52;1738632;82;21168;-46
2021/03/26 22:50:34;;;;;;;12.53;7.97;;;;;;;8.87;47.04;102293.02;1733884;82;21156;-46
2021/03/26 22:53:42;;;;;;;11.15;7.47;;;;;;;8.87;47.08;102293.89;1736801;81;21560;-46
2021/03/26 22:56:21;;;;;;;10.00;7.53;;;;;;;8.87;47.16;102289.12;1737617;80;21148;-47
2021/03/26 22:59:22;;;;;;;11.88;8.25;;;;;;;8.87;47.28;102296.91;1738943;82;21156;-47
2021/03/26 23:01:51;;;;;;;13.37;7.73;;;;;;;8.85;47.19;102291.71;1741405;82;21184;-47
2021/03/26 23:04:26;;;;;;;11.00;8.00;;;;;;;8.84;47.18;102287.81;1732031;82;21294;-45
2021/03/26 23:07:14;;;;;;;11.18;8.85;;;;;;;8.81;47.22;102292.95;1741027;82;21148;-46
2021/03/26 23:10:07;;;;;;;13.13;8.15;;;;;;;8.82;47.26;102296.02;1728395;82;21265;-46